• Join FlightAware (Why Join?)
  • Login
  • US Flag 
06:37AM EDT


 

Airport Tracker/Info


-or-


 

Live Flight TrackerFlight Track Log ✈ VH-MWY ✈ 06-Oct-2013 ✈ YSCN / CDU - YSCN / CDU

Flight Track Log - Related Links

Times and Time Zones

All times are in EDT time to prevent confusion due to time zone crossing. See the VH-MWY flight status page for this flight to view local times or setup timezone preferences in your user account.

Time Position Orientation Groundspeed Altitude Reporting Facility
EDT Latitude Longitude Course Direction KTS MPH feet Rate Location/Type
07:32PM -33.6995 151.1518 78° East 112 129 1,900  Level Aus ATC (RADAR)
07:33PM -33.6923 151.1935 78° East 113 130 1,600 -300 Descending Aus ATC (RADAR)
07:33PM -33.6925 151.2159 91° East 111 128 1,500 -120 Descending Aus ATC (RADAR)
07:35PM -33.7016 151.2594 104° East 108 124 1,400  Descending Aus ATC (RADAR)
07:35PM -33.7043 151.2710 106° East 106 122 1,500 60 Climbing Aus ATC (RADAR)
07:36PM -33.7092 151.2905 107° East 103 119 1,500  Level Aus ATC (RADAR)
07:37PM -33.7295 151.3119 139° Southeast 103 119 1,500  Level Aus ATC (RADAR)
07:37PM -33.7449 151.3085 190° South 97 112 1,500 -120 Level Aus ATC (RADAR)
07:38PM -33.7677 151.2981 201° Southwest 94 108 1,400  Descending Aus ATC (RADAR)
07:39PM -33.7891 151.2846 207° Southwest 94 108 1,500 60 Climbing Aus ATC (RADAR)
07:40PM -33.8007 151.2724 221° Southwest 94 108 1,500  Level Aus ATC (RADAR)
07:40PM -33.8059 151.2670 221° Southwest 96 110 1,500  Level Aus ATC (RADAR)
07:40PM -33.8187 151.2529 222° Southwest 92 106 1,500 -120 Level Aus ATC (RADAR)
07:41PM -33.8302 151.2313 237° Southwest 81 93 1,400 -180 Descending Aus ATC (RADAR)
07:42PM -33.8424 151.2223 211° Southwest 92 106 1,300  Descending Aus ATC (RADAR)
07:43PM -33.8566 151.2349 144° Southeast 91 105 1,400 120 Climbing Aus ATC (RADAR)
07:43PM -33.8482 151.2479 52° Northeast 87 100 1,500  Climbing Aus ATC (RADAR)
07:44PM -33.8369 151.2346 316° Northwest 76 87 1,400 120 Descending Aus ATC (RADAR)
07:45PM -33.8416 151.2346 180° South 85 98 1,700 120 Climbing Aus ATC (RADAR)
07:45PM -33.8381 151.2577 80° East 100 115 1,500 -180 Descending Aus ATC (RADAR)
07:46PM -33.8299 151.2853 70° East 91 105 1,500 -600 Level Aus ATC (RADAR)
07:47PM -33.8261 151.3040 76° East 92 106 600 -840 Descending Aus ATC (RADAR)
07:48PM -33.8422 151.2968 200° South 91 105 400 -300 Descending Aus ATC (RADAR)
07:51PM -33.8203 151.2928 310° West 1,500 300 Climbing Aus ATC (Calculated)
07:53PM -33.7992 151.2622 310° West  Level FlightAware Approximate
07:54PM -33.7860 151.2431 310° West  Level FlightAware Approximate
07:55PM -33.7728 151.2240 310° West  Level FlightAware Approximate
07:56PM -33.7596 151.2049 310° West  Level FlightAware Approximate
07:57PM -33.7464 151.1858 310° West  Level FlightAware Approximate
07:58PM -33.7332 151.1667 310° West  Level FlightAware Approximate
07:59PM -33.7200 151.1476 310° West  Level FlightAware Approximate
07:59PM -33.7983 151.2889 304° West 1,500  Level Aus ATC (Calculated)
08:00PM -33.7068 151.1285 310° West  Level FlightAware Approximate
08:01PM -33.8104 151.2591 232° Southwest  Level Estimated
08:02PM -33.8109 151.2343 269° West  Level FlightAware Approximate
08:03PM -33.8114 151.2094 269° West  Level FlightAware Approximate
08:04PM -33.8119 151.1846 269° West  Level FlightAware Approximate
08:05PM -33.8123 151.1597 269° West  Level FlightAware Approximate
08:06PM -33.8128 151.1349 269° West  Level FlightAware Approximate
08:06PM -33.6917 151.1067 232° Southwest 1,500  Level Aus ATC (Calculated)
08:08PM -33.7143 151.0723 232° Southwest  Level FlightAware Approximate
08:09PM -33.7271 151.0528 232° Southwest  Level FlightAware Approximate
08:10PM -33.7400 151.0334 232° Southwest  Level FlightAware Approximate
08:11PM -33.7549 151.0162 220° Southwest  Level Estimated
08:12PM -33.7699 150.9991 223° Southwest  Level FlightAware Approximate
08:13PM -33.7849 150.9821 223° Southwest  Level FlightAware Approximate
08:13PM -33.8167 150.9167 67° East 200  Level Aus ATC (Calculated)
08:14PM -33.7999 150.9650 223° Southwest  Level FlightAware Approximate
08:15PM -33.8399 150.8932 220° Southwest  Level FlightAware Approximate
08:16PM -33.8557 150.8772 220° Southwest  Level FlightAware Approximate
08:17PM -33.8715 150.8612 220° Southwest  Level FlightAware Approximate
08:18PM -33.8873 150.8452 220° Southwest  Level FlightAware Approximate
08:19PM -33.9031 150.8292 220° Southwest  Level FlightAware Approximate
08:20PM -33.9189 150.8131 220° Southwest  Level FlightAware Approximate
08:21PM -33.9347 150.7971 220° Southwest  Level FlightAware Approximate
08:22PM -33.9505 150.7811 220° Southwest  Level FlightAware Approximate
08:23PM -33.9663 150.7650 220° Southwest  Level FlightAware Approximate
08:23PM -34.0422 150.6878 347° North 200  Level Aus ATC (Calculated)
08:24PM -34.0412 150.6875 347° North -180 Descending Aus ATC (Calculated)
08:26PM -34.0402 150.6872 347° North  Level FlightAware Approximate
08:27PM -34.0403 150.6872 347° North  Level Estimated
08:28PM -34.0403 150.6872 347° North  Level Estimated
08:29PM -34.0403 150.6872 347° North  Level Estimated
08:30PM -34.0403 150.6872 347° North  Level Estimated
08:31PM -34.0403 150.6872 347° North  Level Estimated
08:32PM -34.0403 150.6872 347° North  Level Estimated
08:33PM -34.0403 150.6872 347° North  Level Estimated
08:34PM -34.0403 150.6872 347° North  Level Estimated
08:35PM -34.0403 150.6872 347° North  Level Estimated
08:36PM -34.0403 150.6872 347° North  Level Estimated
08:37PM -34.0403 150.6872 347° North  Level Estimated
08:38PM -34.0403 150.6872 347° North  Level Estimated
08:39PM -34.0403 150.6872 347° North  Level Estimated
08:40PM -34.0403 150.6872 347° North  Level Estimated
08:41PM -34.0403 150.6872 347° North  Level Estimated